Time;durP1;ratioP1;P1;durP2;ratioP2;P2;SDS_P1;SDS_P2;PMS_P1;PMS_P2;Temp;Humidity;BMP_temperature;BMP_pressure;BME280_temperature;BME280_humidity;BME280_pressure;Samples;Min_cycle;Max_cycle;Signal;HPM_P1;HPM_P2
2023/09/14 00:00:08;;;;;;;0.00;0.00;;;;;;;;;;1745255;28;20223;-84
2023/09/14 00:01:01;;;;;;;0.00;0.00;;;;;;;;;;1746776;28;20226;-85
2023/09/14 00:01:54;;;;;;;0.00;0.00;;;;;;;;;;1743152;28;20199;-85
2023/09/14 00:02:48;;;;;;;0.00;0.00;;;;;;;;;;1738342;28;20211;-84
2023/09/14 00:03:39;;;;;;;0.00;0.00;;;;;;;;;;1737709;28;20219;-84
2023/09/14 00:04:31;;;;;;;0.00;0.00;;;;;;;;;;1742452;28;20225;-84
2023/09/14 00:05:23;;;;;;;0.00;0.00;;;;;;;;;;1743250;28;20207;-84
2023/09/14 00:06:14;;;;;;;0.00;0.00;;;;;;;;;;1738541;28;20279;-84
2023/09/14 00:07:05;;;;;;;0.00;0.00;;;;;;;;;;1737368;28;20200;-84
2023/09/14 00:07:57;;;;;;;0.00;0.00;;;;;;;;;;1736381;28;20195;-84
2023/09/14 00:08:48;;;;;;;0.00;0.00;;;;;;;;;;1737014;28;20270;-84
2023/09/14 00:09:40;;;;;;;0.00;0.00;;;;;;;;;;1743549;28;20238;-84
2023/09/14 00:10:32;;;;;;;0.10;0.10;;;;;;;;;;1744991;28;20258;-84
2023/09/14 00:11:23;;;;;;;0.00;0.00;;;;;;;;;;1738555;28;20219;-84
2023/09/14 00:12:15;;;;;;;0.00;0.00;;;;;;;;;;1737330;28;20582;-84
2023/09/14 00:13:06;;;;;;;0.00;0.00;;;;;;;;;;1736818;28;20587;-84
2023/09/14 00:13:58;;;;;;;0.00;0.00;;;;;;;;;;1742829;28;20548;-84
2023/09/14 00:14:49;;;;;;;0.00;0.00;;;;;;;;;;1742600;28;20668;-84
2023/09/14 00:15:40;;;;;;;0.00;0.00;;;;;;;;;;1740718;28;20240;-85
2023/09/14 00:16:32;;;;;;;0.00;0.00;;;;;;;;;;1741618;28;20245;-85
2023/09/14 00:17:23;;;;;;;0.00;0.00;;;;;;;;;;1744384;28;20222;-85
2023/09/14 00:18:16;;;;;;;0.00;0.00;;;;;;;;;;1745227;28;20207;-84
2023/09/14 00:19:09;;;;;;;0.10;0.10;;;;;;;;;;1742813;28;20228;-85
2023/09/14 00:20:00;;;;;;;0.00;0.00;;;;;;;;;;1741279;28;20199;-85
2023/09/14 00:20:53;;;;;;;0.00;0.00;;;;;;;;;;1742325;28;20234;-84
2023/09/14 00:21:45;;;;;;;0.00;0.00;;;;;;;;;;1742432;28;20304;-84
2023/09/14 00:22:36;;;;;;;0.00;0.00;;;;;;;;;;1743138;28;20294;-84
2023/09/14 00:23:28;;;;;;;0.00;0.00;;;;;;;;;;1738543;28;20218;-84
2023/09/14 00:24:19;;;;;;;0.00;0.00;;;;;;;;;;1736497;28;20222;-84
2023/09/14 00:25:10;;;;;;;0.00;0.00;;;;;;;;;;1739850;28;20207;-85
2023/09/14 00:26:03;;;;;;;0.00;0.00;;;;;;;;;;1741081;28;20276;-85
2023/09/14 00:26:54;;;;;;;0.00;0.00;;;;;;;;;;1733988;28;20235;-84
2023/09/14 00:27:45;;;;;;;0.00;0.00;;;;;;;;;;1745475;28;20194;-84
2023/09/14 00:28:37;;;;;;;0.00;0.00;;;;;;;;;;1742638;28;20202;-84
2023/09/14 00:29:28;;;;;;;0.00;0.00;;;;;;;;;;1743312;28;20241;-84
2023/09/14 00:30:20;;;;;;;0.00;0.00;;;;;;;;;;1744321;28;20697;-84
2023/09/14 00:31:12;;;;;;;0.00;0.00;;;;;;;;;;1744624;28;20658;-84
2023/09/14 00:32:03;;;;;;;0.00;0.00;;;;;;;;;;1742881;28;20234;-85
2023/09/14 00:32:55;;;;;;;0.00;0.00;;;;;;;;;;1747506;28;20862;-84
2023/09/14 00:33:48;;;;;;;0.00;0.00;;;;;;;;;;1742006;28;20293;-84
2023/09/14 00:34:39;;;;;;;0.00;0.00;;;;;;;;;;1742757;28;20607;-85
2023/09/14 00:35:30;;;;;;;0.00;0.00;;;;;;;;;;1744607;28;20220;-85
2023/09/14 00:36:22;;;;;;;0.00;0.00;;;;;;;;;;1744773;28;20240;-84
2023/09/14 00:37:14;;;;;;;0.00;0.00;;;;;;;;;;1740202;28;20234;-84
2023/09/14 00:38:05;;;;;;;0.00;0.00;;;;;;;;;;1742448;28;20614;-84
2023/09/14 00:38:57;;;;;;;0.00;0.00;;;;;;;;;;1741589;28;20210;-84
2023/09/14 00:39:48;;;;;;;0.00;0.00;;;;;;;;;;1741369;28;20237;-84
2023/09/14 00:40:39;;;;;;;0.00;0.00;;;;;;;;;;1744518;28;20280;-84
2023/09/14 00:41:31;;;;;;;0.00;0.00;;;;;;;;;;1742397;28;20210;-84
2023/09/14 00:42:22;;;;;;;0.00;0.00;;;;;;;;;;1742100;28;20236;-84
2023/09/14 00:43:14;;;;;;;0.00;0.00;;;;;;;;;;1742394;28;20269;-84
2023/09/14 00:44:05;;;;;;;0.00;0.00;;;;;;;;;;1740071;28;20202;-85
2023/09/14 00:44:56;;;;;;;0.00;0.00;;;;;;;;;;1734590;28;20196;-84
2023/09/14 00:45:49;;;;;;;0.00;0.00;;;;;;;;;;1733319;28;20231;-84
2023/09/14 00:46:40;;;;;;;0.00;0.00;;;;;;;;;;1741815;28;20518;-83
2023/09/14 00:47:31;;;;;;;0.00;0.00;;;;;;;;;;1742166;28;20225;-83
2023/09/14 00:48:23;;;;;;;0.00;0.00;;;;;;;;;;1743752;28;20636;-83
2023/09/14 00:49:16;;;;;;;0.00;0.00;;;;;;;;;;1743426;28;20241;-83
2023/09/14 00:50:08;;;;;;;0.00;0.00;;;;;;;;;;1742958;28;20198;-83
2023/09/14 00:51:00;;;;;;;0.00;0.00;;;;;;;;;;1745223;28;20222;-83
2023/09/14 00:51:51;;;;;;;0.00;0.00;;;;;;;;;;1741743;28;20199;-83
2023/09/14 00:52:43;;;;;;;0.00;0.00;;;;;;;;;;1746160;28;20210;-83
2023/09/14 00:53:35;;;;;;;0.00;0.00;;;;;;;;;;1742321;28;20222;-84
2023/09/14 00:54:26;;;;;;;0.00;0.00;;;;;;;;;;1742667;28;20226;-83
2023/09/14 00:55:18;;;;;;;0.00;0.00;;;;;;;;;;1744439;28;20204;-83
2023/09/14 00:56:11;;;;;;;0.00;0.00;;;;;;;;;;1752674;28;20667;-83
2023/09/14 00:57:02;;;;;;;0.00;0.00;;;;;;;;;;1752768;28;20202;-83
2023/09/14 00:57:53;;;;;;;0.00;0.00;;;;;;;;;;1740743;28;20204;-83
2023/09/14 00:58:47;;;;;;;0.00;0.00;;;;;;;;;;1740334;28;20210;-83
2023/09/14 00:59:38;;;;;;;0.00;0.00;;;;;;;;;;1748345;28;20237;-82
2023/09/14 01:00:30;;;;;;;0.00;0.00;;;;;;;;;;1743025;28;20206;-83
2023/09/14 01:01:22;;;;;;;0.00;0.00;;;;;;;;;;1752367;28;20209;-84
2023/09/14 01:02:13;;;;;;;0.00;0.00;;;;;;;;;;1750825;28;20640;-84
2023/09/14 01:03:04;;;;;;;0.00;0.00;;;;;;;;;;1750738;28;20194;-84
2023/09/14 01:03:56;;;;;;;0.00;0.00;;;;;;;;;;1746182;28;20222;-84
2023/09/14 01:04:49;;;;;;;0.00;0.00;;;;;;;;;;1746733;28;20194;-83
2023/09/14 01:05:43;;;;;;;0.00;0.00;;;;;;;;;;1745798;28;20246;-83
2023/09/14 01:06:34;;;;;;;0.00;0.00;;;;;;;;;;1745148;28;20202;-84
2023/09/14 01:07:25;;;;;;;0.00;0.00;;;;;;;;;;1748045;28;20232;-84
2023/09/14 01:08:18;;;;;;;0.00;0.00;;;;;;;;;;1749452;28;20290;-84
2023/09/14 01:09:09;;;;;;;0.00;0.00;;;;;;;;;;1745995;28;20516;-84
2023/09/14 01:10:00;;;;;;;0.00;0.00;;;;;;;;;;1749965;28;20267;-83
2023/09/14 01:10:52;;;;;;;0.00;0.00;;;;;;;;;;1744049;28;20230;-83
2023/09/14 01:11:44;;;;;;;0.00;0.00;;;;;;;;;;1743272;28;20203;-83
2023/09/14 01:12:35;;;;;;;0.00;0.00;;;;;;;;;;1743221;28;20222;-83
2023/09/14 01:13:31;;;;;;;0.00;0.00;;;;;;;;;;1744598;28;20211;-83
2023/09/14 01:14:24;;;;;;;0.00;0.00;;;;;;;;;;1743766;28;20245;-84
2023/09/14 01:15:19;;;;;;;0.00;0.00;;;;;;;;;;1741188;28;20273;-84
2023/09/14 01:16:15;;;;;;;0.00;0.00;;;;;;;;;;1743278;28;20479;-84
2023/09/14 01:17:09;;;;;;;0.00;0.00;;;;;;;;;;1741673;28;20242;-84
2023/09/14 01:18:06;;;;;;;0.00;0.00;;;;;;;;;;1743780;28;20703;-84
2023/09/14 01:19:01;;;;;;;0.00;0.00;;;;;;;;;;1739780;28;20177;-84
2023/09/14 01:19:56;;;;;;;0.00;0.00;;;;;;;;;;1745728;28;20230;-84
2023/09/14 01:21:12;;;;;;;0.00;0.00;;;;;;;;;;1743409;28;20268;-84
2023/09/14 01:22:16;;;;;;;0.00;0.00;;;;;;;;;;1717544;28;20236;-84
2023/09/14 01:23:14;;;;;;;0.00;0.00;;;;;;;;;;1720683;28;20170;-83
2023/09/14 01:24:11;;;;;;;0.00;0.00;;;;;;;;;;1742056;28;20210;-83
2023/09/14 01:25:09;;;;;;;0.00;0.00;;;;;;;;;;1746741;28;20211;-83
2023/09/14 01:26:02;;;;;;;0.00;0.00;;;;;;;;;;1747430;28;20222;-83
2023/09/14 01:26:54;;;;;;;0.00;0.00;;;;;;;;;;1738508;28;20235;-83
2023/09/14 01:27:45;;;;;;;0.00;0.00;;;;;;;;;;1749246;28;20517;-83
2023/09/14 01:28:37;;;;;;;0.00;0.00;;;;;;;;;;1745087;28;20341;-83
2023/09/14 01:29:28;;;;;;;0.00;0.00;;;;;;;;;;1746239;28;20288;-83
2023/09/14 01:30:20;;;;;;;0.00;0.00;;;;;;;;;;1747799;28;20221;-84
2023/09/14 01:31:12;;;;;;;0.00;0.00;;;;;;;;;;1744993;28;20249;-83
2023/09/14 01:32:03;;;;;;;0.00;0.00;;;;;;;;;;1745029;28;20647;-83
2023/09/14 01:32:55;;;;;;;0.00;0.00;;;;;;;;;;1749939;28;20677;-83
2023/09/14 01:33:48;;;;;;;0.00;0.00;;;;;;;;;;1744689;28;20225;-83
2023/09/14 01:34:40;;;;;;;0.00;0.00;;;;;;;;;;1748030;28;20195;-83
2023/09/14 01:35:32;;;;;;;0.00;0.00;;;;;;;;;;1746108;28;20199;-83
2023/09/14 01:36:26;;;;;;;0.00;0.00;;;;;;;;;;1748224;28;20222;-83
2023/09/14 01:37:18;;;;;;;0.00;0.00;;;;;;;;;;1745747;28;20663;-83
2023/09/14 01:38:10;;;;;;;0.00;0.00;;;;;;;;;;1750026;28;20226;-83
2023/09/14 01:39:04;;;;;;;0.00;0.00;;;;;;;;;;1746256;28;20211;-83
2023/09/14 01:39:57;;;;;;;0.00;0.00;;;;;;;;;;1747724;28;20206;-83
2023/09/14 01:40:48;;;;;;;0.00;0.00;;;;;;;;;;1743731;28;20714;-83
2023/09/14 01:41:41;;;;;;;0.00;0.00;;;;;;;;;;1745013;28;20206;-83
2023/09/14 01:42:33;;;;;;;0.00;0.00;;;;;;;;;;1745609;28;20210;-83
2023/09/14 01:43:24;;;;;;;0.00;0.00;;;;;;;;;;1746485;28;20237;-84
2023/09/14 01:44:16;;;;;;;0.00;0.00;;;;;;;;;;1744415;28;20565;-84
2023/09/14 01:45:08;;;;;;;0.00;0.00;;;;;;;;;;1745169;28;20209;-84
2023/09/14 01:46:00;;;;;;;0.00;0.00;;;;;;;;;;1747673;28;20245;-84
2023/09/14 01:46:51;;;;;;;0.00;0.00;;;;;;;;;;1745330;28;20206;-84
2023/09/14 01:47:46;;;;;;;0.00;0.00;;;;;;;;;;1744738;28;20199;-84
2023/09/14 01:48:37;;;;;;;0.00;0.00;;;;;;;;;;1746406;28;20259;-84
2023/09/14 01:49:29;;;;;;;0.00;0.00;;;;;;;;;;1745622;28;20314;-84
2023/09/14 01:50:20;;;;;;;0.00;0.00;;;;;;;;;;1747546;28;20234;-84
2023/09/14 01:51:13;;;;;;;0.00;0.00;;;;;;;;;;1749175;28;20202;-84
2023/09/14 01:52:04;;;;;;;0.00;0.00;;;;;;;;;;1744827;28;20230;-84
2023/09/14 01:52:56;;;;;;;0.00;0.00;;;;;;;;;;1750808;28;20213;-84
2023/09/14 01:53:48;;;;;;;0.00;0.00;;;;;;;;;;1744841;28;20231;-84
2023/09/14 01:54:40;;;;;;;0.00;0.00;;;;;;;;;;1747662;28;20206;-84
2023/09/14 01:55:31;;;;;;;0.00;0.00;;;;;;;;;;1747658;28;20250;-84
2023/09/14 01:56:22;;;;;;;0.00;0.00;;;;;;;;;;1747735;28;20246;-84
2023/09/14 01:57:15;;;;;;;0.00;0.00;;;;;;;;;;1746796;28;20202;-85
2023/09/14 01:58:06;;;;;;;0.00;0.00;;;;;;;;;;1747203;28;20246;-85
2023/09/14 01:58:57;;;;;;;0.00;0.00;;;;;;;;;;1747587;28;20191;-85
2023/09/14 01:59:49;;;;;;;0.00;0.00;;;;;;;;;;1748089;28;20669;-85
2023/09/14 02:00:40;;;;;;;0.00;0.00;;;;;;;;;;1746169;28;20710;-85
2023/09/14 02:01:32;;;;;;;0.00;0.00;;;;;;;;;;1748886;28;20271;-85
2023/09/14 02:02:25;;;;;;;0.00;0.00;;;;;;;;;;1744940;28;20203;-85
2023/09/14 02:03:17;;;;;;;0.00;0.00;;;;;;;;;;1746207;28;20617;-85
2023/09/14 02:04:08;;;;;;;0.00;0.00;;;;;;;;;;1745692;28;20648;-85
2023/09/14 02:04:59;;;;;;;0.00;0.00;;;;;;;;;;1744294;28;20260;-85
2023/09/14 02:05:57;;;;;;;0.00;0.00;;;;;;;;;;1746816;28;20230;-85
2023/09/14 02:06:49;;;;;;;0.00;0.00;;;;;;;;;;1743921;28;20195;-84
2023/09/14 02:07:41;;;;;;;0.00;0.00;;;;;;;;;;1746312;28;20199;-85
2023/09/14 02:08:32;;;;;;;0.00;0.00;;;;;;;;;;1745451;28;20203;-85
2023/09/14 02:09:25;;;;;;;0.00;0.00;;;;;;;;;;1742784;28;20966;-85
2023/09/14 02:10:16;;;;;;;0.00;0.00;;;;;;;;;;1742093;28;20269;-85
2023/09/14 02:11:08;;;;;;;0.00;0.00;;;;;;;;;;1746901;28;20204;-85
2023/09/14 02:12:00;;;;;;;0.00;0.00;;;;;;;;;;1744291;28;20248;-85
2023/09/14 02:12:52;;;;;;;0.00;0.00;;;;;;;;;;1749656;28;20205;-85
2023/09/14 02:13:43;;;;;;;0.00;0.00;;;;;;;;;;1743957;28;20206;-85
2023/09/14 02:14:35;;;;;;;0.00;0.00;;;;;;;;;;1744723;28;20199;-85
2023/09/14 02:15:26;;;;;;;0.00;0.00;;;;;;;;;;1741633;28;20597;-85
2023/09/14 02:16:18;;;;;;;0.00;0.00;;;;;;;;;;1745880;28;20598;-85
2023/09/14 02:17:10;;;;;;;0.00;0.00;;;;;;;;;;1742923;28;20210;-85
2023/09/14 02:18:01;;;;;;;0.00;0.00;;;;;;;;;;1749241;28;20729;-85
2023/09/14 02:18:52;;;;;;;0.00;0.00;;;;;;;;;;1744440;28;20199;-85
2023/09/14 02:19:44;;;;;;;0.00;0.00;;;;;;;;;;1745509;28;20194;-84
2023/09/14 02:20:35;;;;;;;0.00;0.00;;;;;;;;;;1743646;28;20269;-85
2023/09/14 02:21:26;;;;;;;0.00;0.00;;;;;;;;;;1746183;28;20280;-84
2023/09/14 02:22:18;;;;;;;0.00;0.00;;;;;;;;;;1741282;28;20544;-84
2023/09/14 02:23:09;;;;;;;0.00;0.00;;;;;;;;;;1738714;28;20234;-84
2023/09/14 02:24:01;;;;;;;0.00;0.00;;;;;;;;;;1742582;28;20293;-84
2023/09/14 02:24:52;;;;;;;0.00;0.00;;;;;;;;;;1743881;28;20213;-85
2023/09/14 02:25:43;;;;;;;0.00;0.00;;;;;;;;;;1741361;28;20235;-85
2023/09/14 02:26:35;;;;;;;0.00;0.00;;;;;;;;;;1742260;28;20235;-83
2023/09/14 02:27:26;;;;;;;0.00;0.00;;;;;;;;;;1739038;28;20286;-83
2023/09/14 02:28:19;;;;;;;0.00;0.00;;;;;;;;;;1736044;28;20204;-83
2023/09/14 02:29:11;;;;;;;0.00;0.00;;;;;;;;;;1735017;28;20226;-83
2023/09/14 02:30:03;;;;;;;0.00;0.00;;;;;;;;;;1734126;28;20266;-84
2023/09/14 02:30:54;;;;;;;0.00;0.00;;;;;;;;;;1734715;28;20258;-83
2023/09/14 02:31:46;;;;;;;0.00;0.00;;;;;;;;;;1741720;28;20206;-83
2023/09/14 02:32:38;;;;;;;0.00;0.00;;;;;;;;;;1737607;28;20226;-84
2023/09/14 02:33:29;;;;;;;0.00;0.00;;;;;;;;;;1742153;28;20199;-83
2023/09/14 02:34:21;;;;;;;0.00;0.00;;;;;;;;;;1742326;28;20208;-83
2023/09/14 02:35:12;;;;;;;0.00;0.00;;;;;;;;;;1736257;28;20235;-83
2023/09/14 02:36:03;;;;;;;0.00;0.00;;;;;;;;;;1737652;28;20243;-82
2023/09/14 02:36:55;;;;;;;0.00;0.00;;;;;;;;;;1737303;28;20196;-82
2023/09/14 02:37:46;;;;;;;0.00;0.00;;;;;;;;;;1736998;28;20220;-83
2023/09/14 02:38:38;;;;;;;0.00;0.00;;;;;;;;;;1737313;28;20195;-83
2023/09/14 02:39:29;;;;;;;0.00;0.00;;;;;;;;;;1737890;28;20196;-82
2023/09/14 02:40:20;;;;;;;0.00;0.00;;;;;;;;;;1740143;28;20966;-83
2023/09/14 02:41:12;;;;;;;0.00;0.00;;;;;;;;;;1740858;28;20242;-83
2023/09/14 02:42:03;;;;;;;0.00;0.00;;;;;;;;;;1737407;28;20232;-83
2023/09/14 02:42:54;;;;;;;0.00;0.00;;;;;;;;;;1741934;28;20288;-83
2023/09/14 02:43:48;;;;;;;0.00;0.00;;;;;;;;;;1738551;28;20208;-83
2023/09/14 02:44:39;;;;;;;0.00;0.00;;;;;;;;;;1737746;28;20234;-83
2023/09/14 02:45:30;;;;;;;0.00;0.00;;;;;;;;;;1737183;28;20671;-82
2023/09/14 02:46:22;;;;;;;0.00;0.00;;;;;;;;;;1741259;28;20219;-82
2023/09/14 02:47:13;;;;;;;0.00;0.00;;;;;;;;;;1737044;28;20203;-83
2023/09/14 02:48:06;;;;;;;0.00;0.00;;;;;;;;;;1737101;28;20517;-83
2023/09/14 02:48:57;;;;;;;0.00;0.00;;;;;;;;;;1737546;28;20208;-83
2023/09/14 02:49:48;;;;;;;0.00;0.00;;;;;;;;;;1741690;28;20231;-82
2023/09/14 02:50:40;;;;;;;0.00;0.00;;;;;;;;;;1740351;28;20235;-83
2023/09/14 02:51:31;;;;;;;0.00;0.00;;;;;;;;;;1743663;28;20210;-83
2023/09/14 02:52:22;;;;;;;0.00;0.00;;;;;;;;;;1740231;28;20528;-84
2023/09/14 02:53:14;;;;;;;0.00;0.00;;;;;;;;;;1738079;28;20307;-84
2023/09/14 02:54:05;;;;;;;0.00;0.00;;;;;;;;;;1740820;28;20214;-85
2023/09/14 02:54:56;;;;;;;0.00;0.00;;;;;;;;;;1745945;28;20281;-85
2023/09/14 02:55:48;;;;;;;0.00;0.00;;;;;;;;;;1743608;28;20231;-84
2023/09/14 02:56:40;;;;;;;0.00;0.00;;;;;;;;;;1742019;28;20211;-84
2023/09/14 02:57:31;;;;;;;0.00;0.00;;;;;;;;;;1740284;28;20200;-84
2023/09/14 02:58:23;;;;;;;0.00;0.00;;;;;;;;;;1742824;28;20203;-84
2023/09/14 02:59:17;;;;;;;0.00;0.00;;;;;;;;;;1739173;28;20312;-84
2023/09/14 03:00:12;;;;;;;0.00;0.00;;;;;;;;;;1737941;28;20229;-83
2023/09/14 03:01:09;;;;;;;0.00;0.00;;;;;;;;;;1735615;28;20247;-83
2023/09/14 03:02:00;;;;;;;0.00;0.00;;;;;;;;;;1736523;28;20498;-83
2023/09/14 03:02:51;;;;;;;0.00;0.00;;;;;;;;;;1738599;28;20188;-83
2023/09/14 03:03:44;;;;;;;0.00;0.00;;;;;;;;;;1731997;28;20227;-83
2023/09/14 03:04:35;;;;;;;0.00;0.00;;;;;;;;;;1737336;28;20242;-83
2023/09/14 03:05:26;;;;;;;0.00;0.00;;;;;;;;;;1741844;28;20648;-83
2023/09/14 03:06:18;;;;;;;0.00;0.00;;;;;;;;;;1742493;28;20199;-83
2023/09/14 03:07:09;;;;;;;0.00;0.00;;;;;;;;;;1742257;28;20241;-83
2023/09/14 03:08:00;;;;;;;0.00;0.00;;;;;;;;;;1738918;28;20200;-83
2023/09/14 03:08:52;;;;;;;0.00;0.00;;;;;;;;;;1736601;28;20211;-81
2023/09/14 03:09:43;;;;;;;0.00;0.00;;;;;;;;;;1740024;28;20234;-82
2023/09/14 03:10:35;;;;;;;0.00;0.00;;;;;;;;;;1742645;28;20298;-82
2023/09/14 03:11:27;;;;;;;0.00;0.00;;;;;;;;;;1740436;28;20739;-82
2023/09/14 03:12:19;;;;;;;0.00;0.00;;;;;;;;;;1741936;28;20214;-83
2023/09/14 03:13:10;;;;;;;0.00;0.00;;;;;;;;;;1745828;28;20194;-82
2023/09/14 03:14:02;;;;;;;0.00;0.00;;;;;;;;;;1740458;28;20192;-83
2023/09/14 03:14:54;;;;;;;0.00;0.00;;;;;;;;;;1744759;28;20245;-82
2023/09/14 03:15:46;;;;;;;0.00;0.00;;;;;;;;;;1741690;28;20243;-83
2023/09/14 03:16:37;;;;;;;0.00;0.00;;;;;;;;;;1740063;28;20200;-83
2023/09/14 03:17:29;;;;;;;0.00;0.00;;;;;;;;;;1741334;28;20213;-83
2023/09/14 03:18:21;;;;;;;0.00;0.00;;;;;;;;;;1740664;28;20203;-83
2023/09/14 03:19:13;;;;;;;0.00;0.00;;;;;;;;;;1741120;28;20211;-83
2023/09/14 03:20:06;;;;;;;0.00;0.00;;;;;;;;;;1746665;28;20201;-83
2023/09/14 03:20:57;;;;;;;0.10;0.10;;;;;;;;;;1738978;28;20589;-83
2023/09/14 03:21:49;;;;;;;0.00;0.00;;;;;;;;;;1737189;28;20235;-82
2023/09/14 03:22:40;;;;;;;0.00;0.00;;;;;;;;;;1741681;28;20273;-82
2023/09/14 03:23:31;;;;;;;0.00;0.00;;;;;;;;;;1740153;28;20238;-82
2023/09/14 03:24:23;;;;;;;0.00;0.00;;;;;;;;;;1739258;28;20214;-82
2023/09/14 03:25:14;;;;;;;0.00;0.00;;;;;;;;;;1737870;28;20671;-83
2023/09/14 03:26:06;;;;;;;0.00;0.00;;;;;;;;;;1737129;28;20235;-83
2023/09/14 03:26:58;;;;;;;0.00;0.00;;;;;;;;;;1739394;28;20291;-84
2023/09/14 03:27:49;;;;;;;0.00;0.00;;;;;;;;;;1741094;28;20199;-85
2023/09/14 03:28:40;;;;;;;0.00;0.00;;;;;;;;;;1741019;28;20200;-84
2023/09/14 03:29:32;;;;;;;0.00;0.00;;;;;;;;;;1741954;28;20207;-84
2023/09/14 03:30:24;;;;;;;0.00;0.00;;;;;;;;;;1741549;28;20237;-84
2023/09/14 03:31:15;;;;;;;0.00;0.00;;;;;;;;;;1739736;28;20374;-83
2023/09/14 03:32:07;;;;;;;0.00;0.00;;;;;;;;;;1737936;28;20606;-83
2023/09/14 03:32:58;;;;;;;0.00;0.00;;;;;;;;;;1740565;28;20217;-83
2023/09/14 03:33:51;;;;;;;0.00;0.00;;;;;;;;;;1735907;28;20203;-84
2023/09/14 03:34:43;;;;;;;0.00;0.00;;;;;;;;;;1737365;28;20561;-84
2023/09/14 03:35:34;;;;;;;0.00;0.00;;;;;;;;;;1737147;28;20633;-83
2023/09/14 03:36:26;;;;;;;0.00;0.00;;;;;;;;;;1738418;28;20291;-83
2023/09/14 03:37:17;;;;;;;0.00;0.00;;;;;;;;;;1736217;28;20203;-84
2023/09/14 03:38:08;;;;;;;0.10;0.10;;;;;;;;;;1734879;28;20210;-84
2023/09/14 03:39:00;;;;;;;0.00;0.00;;;;;;;;;;1735554;28;20200;-84
2023/09/14 03:39:51;;;;;;;0.00;0.00;;;;;;;;;;1735310;28;20290;-84
2023/09/14 03:40:42;;;;;;;0.00;0.00;;;;;;;;;;1735442;28;20622;-83
2023/09/14 03:41:34;;;;;;;0.00;0.00;;;;;;;;;;1738757;28;20540;-83
2023/09/14 03:42:25;;;;;;;0.00;0.00;;;;;;;;;;1738065;28;20726;-83
2023/09/14 03:43:16;;;;;;;0.10;0.10;;;;;;;;;;1739877;28;20675;-83
2023/09/14 03:44:08;;;;;;;0.00;0.00;;;;;;;;;;1739118;28;20262;-84
2023/09/14 03:44:59;;;;;;;0.00;0.00;;;;;;;;;;1741946;28;20317;-82
2023/09/14 03:45:52;;;;;;;0.00;0.00;;;;;;;;;;1740420;28;20704;-82
2023/09/14 03:46:44;;;;;;;0.03;0.03;;;;;;;;;;1738663;28;20219;-82
2023/09/14 03:47:35;;;;;;;0.00;0.00;;;;;;;;;;1742476;28;20233;-82
2023/09/14 03:48:27;;;;;;;0.00;0.00;;;;;;;;;;1740676;28;20633;-83
2023/09/14 03:49:18;;;;;;;0.00;0.00;;;;;;;;;;1735917;28;20243;-83
2023/09/14 03:50:11;;;;;;;0.00;0.00;;;;;;;;;;1742773;28;20251;-83
2023/09/14 03:51:03;;;;;;;0.00;0.00;;;;;;;;;;1739572;28;20239;-83
2023/09/14 03:51:55;;;;;;;0.00;0.00;;;;;;;;;;1737176;28;20199;-84
2023/09/14 03:52:46;;;;;;;0.00;0.00;;;;;;;;;;1736735;28;20200;-83
2023/09/14 03:53:38;;;;;;;0.00;0.00;;;;;;;;;;1734885;28;20203;-83
2023/09/14 03:54:29;;;;;;;0.00;0.00;;;;;;;;;;1738305;28;20204;-82
2023/09/14 03:55:21;;;;;;;0.00;0.00;;;;;;;;;;1739162;28;20209;-83
2023/09/14 03:56:13;;;;;;;0.00;0.00;;;;;;;;;;1743309;28;20290;-83
2023/09/14 03:57:14;;;;;;;0.00;0.00;;;;;;;;;;1739779;28;20214;-84
2023/09/14 03:58:05;;;;;;;0.00;0.00;;;;;;;;;;1734337;28;20192;-84
2023/09/14 03:58:57;;;;;;;0.00;0.00;;;;;;;;;;1734764;28;20201;-84
2023/09/14 03:59:48;;;;;;;0.00;0.00;;;;;;;;;;1742899;28;20539;-82
2023/09/14 04:00:39;;;;;;;0.00;0.00;;;;;;;;;;1738611;28;20243;-82
2023/09/14 04:01:33;;;;;;;0.00;0.00;;;;;;;;;;1737084;28;20196;-82
2023/09/14 04:02:24;;;;;;;0.00;0.00;;;;;;;;;;1737424;28;20270;-82
2023/09/14 04:03:16;;;;;;;0.00;0.00;;;;;;;;;;1737534;28;20273;-82
2023/09/14 04:04:08;;;;;;;0.00;0.00;;;;;;;;;;1738296;28;20573;-82
2023/09/14 04:05:10;;;;;;;0.00;0.00;;;;;;;;;;1742883;28;20458;-82
2023/09/14 04:06:01;;;;;;;0.00;0.00;;;;;;;;;;1738328;28;20222;-83
2023/09/14 04:06:53;;;;;;;0.00;0.00;;;;;;;;;;1738738;28;20196;-83
2023/09/14 04:07:45;;;;;;;0.00;0.00;;;;;;;;;;1741638;28;20294;-83
2023/09/14 04:08:36;;;;;;;0.00;0.00;;;;;;;;;;1737482;28;20203;-81
2023/09/14 04:09:29;;;;;;;0.00;0.00;;;;;;;;;;1738622;28;21659;-82
2023/09/14 04:10:20;;;;;;;0.00;0.00;;;;;;;;;;1739431;28;20567;-81
2023/09/14 04:11:12;;;;;;;0.00;0.00;;;;;;;;;;1740934;28;20672;-81
2023/09/14 04:12:04;;;;;;;0.00;0.00;;;;;;;;;;1737523;28;20214;-82
2023/09/14 04:12:58;;;;;;;0.00;0.00;;;;;;;;;;1742421;28;20245;-82
2023/09/14 04:13:50;;;;;;;0.00;0.00;;;;;;;;;;1736959;28;20238;-82
2023/09/14 04:14:42;;;;;;;0.00;0.00;;;;;;;;;;1739674;28;20210;-82
2023/09/14 04:15:33;;;;;;;0.00;0.00;;;;;;;;;;1739188;28;20206;-82
2023/09/14 04:16:28;;;;;;;0.00;0.00;;;;;;;;;;1739396;28;20203;-82
2023/09/14 04:17:21;;;;;;;0.00;0.00;;;;;;;;;;1736853;28;20199;-82
2023/09/14 04:18:12;;;;;;;0.00;0.00;;;;;;;;;;1738192;28;20211;-82
2023/09/14 04:19:04;;;;;;;0.00;0.00;;;;;;;;;;1735350;28;20207;-82
2023/09/14 04:19:55;;;;;;;0.00;0.00;;;;;;;;;;1734226;28;20240;-82
2023/09/14 04:20:46;;;;;;;0.00;0.00;;;;;;;;;;1736762;28;20255;-82
2023/09/14 04:21:40;;;;;;;0.00;0.00;;;;;;;;;;1737080;28;20199;-82
2023/09/14 04:22:32;;;;;;;0.00;0.00;;;;;;;;;;1739322;28;20747;-82
2023/09/14 04:23:24;;;;;;;0.00;0.00;;;;;;;;;;1737999;28;20203;-82
2023/09/14 04:24:15;;;;;;;0.00;0.00;;;;;;;;;;1738184;28;20212;-82
2023/09/14 04:25:07;;;;;;;0.00;0.00;;;;;;;;;;1743638;28;20206;-83
2023/09/14 04:26:00;;;;;;;0.00;0.00;;;;;;;;;;1738669;28;20603;-82
2023/09/14 04:26:51;;;;;;;0.00;0.00;;;;;;;;;;1742935;28;20698;-82
2023/09/14 04:27:42;;;;;;;0.00;0.00;;;;;;;;;;1745536;28;20229;-82
2023/09/14 04:28:34;;;;;;;0.00;0.00;;;;;;;;;;1747456;28;20509;-83
2023/09/14 04:29:25;;;;;;;0.00;0.00;;;;;;;;;;1748707;28;20217;-83
2023/09/14 04:30:16;;;;;;;0.00;0.00;;;;;;;;;;1743158;28;20227;-83
2023/09/14 04:31:10;;;;;;;0.00;0.00;;;;;;;;;;1746209;28;20195;-83
2023/09/14 04:32:01;;;;;;;0.00;0.00;;;;;;;;;;1738584;28;20195;-83
2023/09/14 04:32:53;;;;;;;0.00;0.00;;;;;;;;;;1749445;28;20202;-83
2023/09/14 04:33:45;;;;;;;0.00;0.00;;;;;;;;;;1750566;28;20240;-83
2023/09/14 04:34:36;;;;;;;0.00;0.00;;;;;;;;;;1746553;28;20237;-83
2023/09/14 04:35:27;;;;;;;0.00;0.00;;;;;;;;;;1744588;28;20293;-83
2023/09/14 04:36:19;;;;;;;0.00;0.00;;;;;;;;;;1745359;28;20195;-83
2023/09/14 04:37:10;;;;;;;0.00;0.00;;;;;;;;;;1745196;28;20261;-83
2023/09/14 04:38:01;;;;;;;0.00;0.00;;;;;;;;;;1749869;28;20257;-83
2023/09/14 04:38:54;;;;;;;0.00;0.00;;;;;;;;;;1744761;28;20440;-83
2023/09/14 04:39:46;;;;;;;0.00;0.00;;;;;;;;;;1748627;28;20574;-83
2023/09/14 04:40:38;;;;;;;0.00;0.00;;;;;;;;;;1747663;28;20260;-83
2023/09/14 04:41:30;;;;;;;0.00;0.00;;;;;;;;;;1744174;28;20264;-83
2023/09/14 04:42:21;;;;;;;0.00;0.00;;;;;;;;;;1745474;28;20206;-83
2023/09/14 04:43:12;;;;;;;0.00;0.00;;;;;;;;;;1747426;28;20210;-83
2023/09/14 04:44:05;;;;;;;0.00;0.00;;;;;;;;;;1742002;28;20195;-83
2023/09/14 04:44:56;;;;;;;0.00;0.00;;;;;;;;;;1738357;28;20644;-84
2023/09/14 04:45:47;;;;;;;0.00;0.00;;;;;;;;;;1748652;28;20233;-84
2023/09/14 04:46:39;;;;;;;0.00;0.00;;;;;;;;;;1747780;28;20195;-84
2023/09/14 04:47:30;;;;;;;0.00;0.00;;;;;;;;;;1746050;28;20206;-84
2023/09/14 04:48:23;;;;;;;0.00;0.00;;;;;;;;;;1744846;28;20244;-84
2023/09/14 04:49:15;;;;;;;0.00;0.00;;;;;;;;;;1745241;28;20253;-84
2023/09/14 04:50:06;;;;;;;0.00;0.00;;;;;;;;;;1752722;28;20684;-84
2023/09/14 04:50:59;;;;;;;0.00;0.00;;;;;;;;;;1743744;28;20452;-83
2023/09/14 04:51:50;;;;;;;0.00;0.00;;;;;;;;;;1743236;28;20680;-84
2023/09/14 04:52:41;;;;;;;0.00;0.00;;;;;;;;;;1744482;28;20225;-84
2023/09/14 04:53:33;;;;;;;0.00;0.00;;;;;;;;;;1748972;28;20198;-84
2023/09/14 04:54:24;;;;;;;0.00;0.00;;;;;;;;;;1745528;28;20211;-84
2023/09/14 04:55:15;;;;;;;0.00;0.00;;;;;;;;;;1742897;28;20624;-84
2023/09/14 04:56:07;;;;;;;0.00;0.00;;;;;;;;;;1752463;28;20202;-84
2023/09/14 04:56:58;;;;;;;0.00;0.00;;;;;;;;;;1747969;28;20242;-84
2023/09/14 04:57:49;;;;;;;0.00;0.00;;;;;;;;;;1752334;28;20608;-84
2023/09/14 04:58:42;;;;;;;0.00;0.00;;;;;;;;;;1756618;28;20208;-84
2023/09/14 04:59:33;;;;;;;0.00;0.00;;;;;;;;;;1753705;28;20191;-84
2023/09/14 05:00:24;;;;;;;0.00;0.00;;;;;;;;;;1744391;28;20210;-84
2023/09/14 05:01:16;;;;;;;0.00;0.00;;;;;;;;;;1742239;28;20609;-85
2023/09/14 05:02:08;;;;;;;0.00;0.00;;;;;;;;;;1748185;28;20199;-85
2023/09/14 05:03:02;;;;;;;0.00;0.00;;;;;;;;;;1748160;28;20204;-85
2023/09/14 05:03:55;;;;;;;0.00;0.00;;;;;;;;;;1742550;28;20203;-85
2023/09/14 05:04:46;;;;;;;0.00;0.00;;;;;;;;;;1748290;28;20601;-84
2023/09/14 05:05:38;;;;;;;0.00;0.00;;;;;;;;;;1748702;28;20233;-85
2023/09/14 05:06:29;;;;;;;0.00;0.00;;;;;;;;;;1750828;28;20211;-85
2023/09/14 05:07:21;;;;;;;0.00;0.00;;;;;;;;;;1750565;28;20198;-86
2023/09/14 05:08:13;;;;;;;0.00;0.00;;;;;;;;;;1746039;28;20207;-86
2023/09/14 05:09:04;;;;;;;0.00;0.00;;;;;;;;;;1747257;28;20253;-86
2023/09/14 05:09:55;;;;;;;0.00;0.00;;;;;;;;;;1747655;28;20661;-86
2023/09/14 05:10:49;;;;;;;0.00;0.00;;;;;;;;;;1745913;28;21253;-85
2023/09/14 05:11:40;;;;;;;0.00;0.00;;;;;;;;;;1743887;28;20257;-85